Time,TemperatureF,DewpointF,PressureIn,WindDirection,WindDirectionDegrees,WindSpeedMPH,WindSpeedGustMPH,Humidity,HourlyPrecipIn,Conditions,Clouds,dailyrainin,SolarRadiationWatts/m^2,SoftwareType,DateUTC
2013-01-02 00:03:00,22.4,4.0,30.33,WNW,290,0.0,1.0,46,0.00,,,0.00,0,weatherlink.com 1.10,2013-01-02 07:03:00,
2013-01-02 00:18:00,21.1,5.0,30.33,SW,231,1.0,1.0,51,0.00,,,0.00,0,weatherlink.com 1.10,2013-01-02 07:18:00,
2013-01-02 00:33:00,21.3,6.0,30.33,WSW,241,0.0,2.0,52,0.00,,,0.00,0,weatherlink.com 1.10,2013-01-02 07:33:00,
2013-01-02 00:48:00,21.1,6.0,30.33,West,273,1.0,2.0,52,0.00,,,0.00,0,weatherlink.com 1.10,2013-01-02 07:48:00,
2013-01-02 01:03:00,20.8,7.0,30.34,NW,324,1.0,2.0,55,0.00,,,0.00,0,weatherlink.com 1.10,2013-01-02 08:03:00,
2013-01-02 01:18:00,21.2,7.0,30.34,NW,324,0.0,2.0,55,0.00,,,0.00,0,weatherlink.com 1.10,2013-01-02 08:18:00,
2013-01-02 01:33:00,20.8,6.0,30.34,NW,324,0.0,1.0,54,0.00,,,0.00,0,weatherlink.com 1.10,2013-01-02 08:33:00,
2013-01-02 01:48:00,21.3,5.0,30.34,NW,324,0.0,1.0,50,0.00,,,0.00,0,weatherlink.com 1.10,2013-01-02 08:48:00,
2013-01-02 02:03:00,21.0,7.0,30.34,NW,317,1.0,2.0,55,0.00,,,0.00,0,weatherlink.com 1.10,2013-01-02 09:03:00,
2013-01-02 02:18:00,19.4,7.0,30.35,NW,317,0.0,0.0,58,0.00,,,0.00,0,weatherlink.com 1.10,2013-01-02 09:18:00,
2013-01-02 02:33:00,18.6,7.0,30.35,NW,317,1.0,2.0,60,0.00,,,0.00,0,weatherlink.com 1.10,2013-01-02 09:33:00,
2013-01-02 02:48:00,18.5,6.0,30.35,NW,317,2.0,3.0,59,0.00,,,0.00,0,weatherlink.com 1.10,2013-01-02 09:48:00,
2013-01-02 03:03:00,17.6,6.0,30.35,NW,319,1.0,2.0,61,0.00,,,0.00,0,weatherlink.com 1.10,2013-01-02 10:03:00,
2013-01-02 03:18:00,18.3,6.0,30.34,West,265,0.0,3.0,60,0.00,,,0.00,0,weatherlink.com 1.10,2013-01-02 10:18:00,
2013-01-02 03:33:00,20.6,5.0,30.34,NW,308,1.0,5.0,52,0.00,,,0.00,0,weatherlink.com 1.10,2013-01-02 10:33:00,
2013-01-02 03:48:00,22.4,4.0,30.34,West,275,1.0,2.0,46,0.00,,,0.00,0,weatherlink.com 1.10,2013-01-02 10:48:00,
2013-01-02 04:03:00,22.1,4.0,30.33,West,280,1.0,3.0,46,0.00,,,0.00,0,weatherlink.com 1.10,2013-01-02 11:03:00,
2013-01-02 04:18:00,22.6,4.0,30.33,West,281,0.0,2.0,45,0.00,,,0.00,0,weatherlink.com 1.10,2013-01-02 11:18:00,
2013-01-02 04:33:00,20.8,4.0,30.33,West,279,0.0,2.0,49,0.00,,,0.00,0,weatherlink.com 1.10,2013-01-02 11:33:00,
2013-01-02 04:48:00,17.3,5.0,30.33,SE,124,1.0,3.0,60,0.00,,,0.00,0,weatherlink.com 1.10,2013-01-02 11:48:00,
2013-01-02 05:03:00,16.7,6.0,30.34,SE,126,0.0,2.0,62,0.00,,,0.00,0,weatherlink.com 1.10,2013-01-02 12:03:00,
2013-01-02 05:18:00,16.1,5.0,30.34,SE,124,0.0,1.0,63,0.00,,,0.00,0,weatherlink.com 1.10,2013-01-02 12:18:00,
2013-01-02 05:33:00,15.7,5.0,30.34,ESE,121,0.0,1.0,64,0.00,,,0.00,0,weatherlink.com 1.10,2013-01-02 12:33:00,
2013-01-02 05:48:00,15.2,5.0,30.34,SE,137,0.0,0.0,65,0.00,,,0.00,0,weatherlink.com 1.10,2013-01-02 12:48:00,
2013-01-02 06:03:00,14.8,5.0,30.35,SE,132,0.0,2.0,65,0.00,,,0.00,0,weatherlink.com 1.10,2013-01-02 13:03:00,
2013-01-02 06:18:00,14.8,5.0,30.36,SE,136,1.0,1.0,65,0.00,,,0.00,0,weatherlink.com 1.10,2013-01-02 13:18:00,
2013-01-02 06:33:00,14.3,5.0,30.36,SE,140,0.0,1.0,66,0.00,,,0.00,0,weatherlink.com 1.10,2013-01-02 13:33:00,
2013-01-02 06:48:00,14.9,5.0,30.36,SE,139,0.0,1.0,66,0.00,,,0.00,0,weatherlink.com 1.10,2013-01-02 13:48:00,
2013-01-02 07:03:00,15.9,5.0,30.36,NE,49,1.0,2.0,63,0.00,,,0.00,0,weatherlink.com 1.10,2013-01-02 14:03:00,
2013-01-02 07:18:00,17.5,4.0,30.36,North,351,2.0,2.0,56,0.00,,,0.00,0,weatherlink.com 1.10,2013-01-02 14:18:00,
2013-01-02 07:33:00,18.6,4.0,30.37,NNW,327,1.0,2.0,53,0.00,,,0.00,7,weatherlink.com 1.10,2013-01-02 14:33:00,
2013-01-02 07:48:00,18.1,3.0,30.37,NW,304,1.0,2.0,53,0.00,,,0.00,12,weatherlink.com 1.10,2013-01-02 14:48:00,
2013-01-02 08:03:00,19.1,4.0,30.37,NW,304,0.0,0.0,53,0.00,,,0.00,23,weatherlink.com 1.10,2013-01-02 15:03:00,
2013-01-02 08:18:00,20.3,4.0,30.37,NW,305,0.0,1.0,50,0.00,,,0.00,56,weatherlink.com 1.10,2013-01-02 15:18:00,
2013-01-02 08:33:00,22.1,7.0,30.37,NW,311,0.0,1.0,53,0.00,,,0.00,116,weatherlink.com 1.10,2013-01-02 15:33:00,
2013-01-02 08:49:00,22.6,7.0,30.37,NNW,341,0.0,1.0,52,0.00,,,0.00,165,weatherlink.com 1.10,2013-01-02 15:49:00,
2013-01-02 09:04:00,24.1,6.0,30.37,NNE,24,0.0,1.0,47,0.00,,,0.00,169,weatherlink.com 1.10,2013-01-02 16:04:00,
2013-01-02 09:19:00,25.6,7.0,30.37,East,84,1.0,1.0,46,0.00,,,0.00,169,weatherlink.com 1.10,2013-01-02 16:19:00,
2013-01-02 09:34:00,27.0,9.0,30.36,East,91,0.0,0.0,46,0.00,,,0.00,188,weatherlink.com 1.10,2013-01-02 16:34:00,
2013-01-02 09:49:00,28.5,8.0,30.36,East,96,0.0,1.0,43,0.00,,,0.00,294,weatherlink.com 1.10,2013-01-02 16:49:00,
2013-01-02 10:04:00,29.3,9.0,30.36,East,96,1.0,3.0,43,0.00,,,0.00,341,weatherlink.com 1.10,2013-01-02 17:04:00,
2013-01-02 10:19:00,30.6,8.0,30.35,SSE,160,0.0,3.0,38,0.00,,,0.00,366,weatherlink.com 1.10,2013-01-02 17:19:00,
2013-01-02 10:34:00,32.4,6.0,30.34,WNW,294,4.0,4.0,33,0.00,,,0.00,387,weatherlink.com 1.10,2013-01-02 17:34:00,
2013-01-02 10:49:00,32.5,3.0,30.34,NW,324,0.0,5.0,29,0.00,,,0.00,411,weatherlink.com 1.10,2013-01-02 17:49:00,
2013-01-02 11:04:00,33.6,4.0,30.33,NNW,329,2.0,9.0,28,0.00,,,0.00,432,weatherlink.com 1.10,2013-01-02 18:04:00,
2013-01-02 11:19:00,33.7,7.0,30.32,SE,140,3.0,6.0,32,0.00,,,0.00,448,weatherlink.com 1.10,2013-01-02 18:19:00,
2013-01-02 11:34:00,33.3,6.0,30.32,ENE,76,2.0,10.0,32,0.00,,,0.00,107,weatherlink.com 1.10,2013-01-02 18:34:00,
2013-01-02 11:49:00,33.8,6.0,30.31,ESE,105,2.0,6.0,31,0.00,,,0.00,494,weatherlink.com 1.10,2013-01-02 18:49:00,
2013-01-02 12:04:00,34.2,6.0,30.30,ENE,64,4.0,7.0,31,0.00,,,0.00,534,weatherlink.com 1.10,2013-01-02 19:04:00,
2013-01-02 12:19:00,33.3,6.0,30.31,NNE,25,4.0,11.0,31,0.00,,,0.00,227,weatherlink.com 1.10,2013-01-02 19:19:00,
2013-01-02 12:34:00,31.1,4.0,30.31,East,86,5.0,17.0,32,0.00,,,0.00,297,weatherlink.com 1.10,2013-01-02 19:34:00,
2013-01-02 12:49:00,30.3,6.0,30.31,NE,56,5.0,15.0,36,0.00,,,0.00,499,weatherlink.com 1.10,2013-01-02 19:49:00,
2013-01-02 13:04:00,29.9,8.0,30.32,NE,43,5.0,10.0,39,0.00,,,0.00,345,weatherlink.com 1.10,2013-01-02 20:04:00,
2013-01-02 13:19:00,29.9,8.0,30.31,NE,40,3.0,10.0,40,0.00,,,0.00,438,weatherlink.com 1.10,2013-01-02 20:19:00,
2013-01-02 13:34:00,30.3,8.0,30.31,NNW,331,2.0,7.0,39,0.00,,,0.00,417,weatherlink.com 1.10,2013-01-02 20:34:00,
2013-01-02 13:49:00,31.6,9.0,30.30,North,360,3.0,4.0,38,0.00,,,0.00,401,weatherlink.com 1.10,2013-01-02 20:49:00,
2013-01-02 14:04:00,31.3,8.0,30.30,North,350,2.0,5.0,38,0.00,,,0.00,380,weatherlink.com 1.10,2013-01-02 21:04:00,
2013-01-02 14:19:00,31.3,9.0,30.30,WNW,286,1.0,3.0,39,0.00,,,0.00,359,weatherlink.com 1.10,2013-01-02 21:19:00,
2013-01-02 14:34:00,31.9,8.0,30.29,SSE,159,0.0,3.0,37,0.00,,,0.00,271,weatherlink.com 1.10,2013-01-02 21:34:00,
2013-01-02 14:49:00,32.8,8.0,30.29,South,174,2.0,7.0,35,0.00,,,0.00,302,weatherlink.com 1.10,2013-01-02 21:49:00,
2013-01-02 15:04:00,32.6,9.0,30.30,SSW,201,2.0,4.0,38,0.00,,,0.00,264,weatherlink.com 1.10,2013-01-02 22:04:00,
2013-01-02 15:19:00,31.9,8.0,30.30,South,171,3.0,5.0,37,0.00,,,0.00,127,weatherlink.com 1.10,2013-01-02 22:19:00,
2013-01-02 15:34:00,31.3,10.0,30.31,South,180,1.0,5.0,41,0.00,,,0.00,171,weatherlink.com 1.10,2013-01-02 22:34:00,
2013-01-02 15:49:00,31.0,10.0,30.31,SSE,162,4.0,7.0,42,0.00,,,0.00,88,weatherlink.com 1.10,2013-01-02 22:49:00,
2013-01-02 16:04:00,30.5,10.0,30.32,ENE,63,3.0,7.0,43,0.00,,,0.00,74,weatherlink.com 1.10,2013-01-02 23:04:00,
2013-01-02 16:19:00,30.1,10.0,30.33,South,182,2.0,4.0,43,0.00,,,0.00,40,weatherlink.com 1.10,2013-01-02 23:19:00,
2013-01-02 16:34:00,29.1,10.0,30.34,East,98,1.0,5.0,45,0.00,,,0.00,9,weatherlink.com 1.10,2013-01-02 23:34:00,
2013-01-02 16:49:00,27.9,10.0,30.35,SSE,167,1.0,4.0,48,0.00,,,0.00,0,weatherlink.com 1.10,2013-01-02 23:49:00,
2013-01-02 17:04:00,27.3,10.0,30.36,South,184,1.0,4.0,48,0.00,,,0.00,0,weatherlink.com 1.10,2013-01-03 00:04:00,
2013-01-02 17:19:00,26.9,10.0,30.36,South,170,1.0,3.0,49,0.00,,,0.00,0,weatherlink.com 1.10,2013-01-03 00:19:00,
2013-01-02 17:50:00,26.2,10.0,30.37,South,175,0.0,2.0,51,0.00,,,0.00,0,weatherlink.com 1.10,2013-01-03 00:50:00,
2013-01-02 18:05:00,26.0,10.0,30.38,SSW,213,3.0,4.0,52,0.00,,,0.00,0,weatherlink.com 1.10,2013-01-03 01:05:00,
2013-01-02 18:20:00,25.7,10.0,30.38,SSW,205,0.0,4.0,52,0.00,,,0.00,0,weatherlink.com 1.10,2013-01-03 01:20:00,
2013-01-02 18:35:00,25.3,10.0,30.39,SW,214,1.0,4.0,53,0.00,,,0.00,0,weatherlink.com 1.10,2013-01-03 01:35:00,
2013-01-02 18:50:00,25.1,10.0,30.39,SW,232,2.0,5.0,54,0.00,,,0.00,0,weatherlink.com 1.10,2013-01-03 01:50:00,
2013-01-02 19:05:00,24.3,10.0,30.40,SW,226,4.0,4.0,55,0.00,,,0.00,0,weatherlink.com 1.10,2013-01-03 02:05:00,
2013-01-02 19:20:00,24.1,10.0,30.40,SW,221,2.0,5.0,55,0.00,,,0.00,0,weatherlink.com 1.10,2013-01-03 02:20:00,
2013-01-02 19:35:00,24.0,10.0,30.40,SW,221,3.0,5.0,55,0.00,,,0.00,0,weatherlink.com 1.10,2013-01-03 02:35:00,
2013-01-02 19:50:00,23.6,9.0,30.41,WSW,244,1.0,4.0,55,0.00,,,0.00,0,weatherlink.com 1.10,2013-01-03 02:50:00,
2013-01-02 20:05:00,23.4,10.0,30.40,SW,225,2.0,3.0,56,0.00,,,0.00,0,weatherlink.com 1.10,2013-01-03 03:05:00,
2013-01-02 20:20:00,23.5,9.0,30.41,WSW,253,3.0,5.0,55,0.00,,,0.00,0,weatherlink.com 1.10,2013-01-03 03:20:00,
2013-01-02 20:50:00,23.2,9.0,30.41,SW,221,2.0,4.0,55,0.00,,,0.00,0,weatherlink.com 1.10,2013-01-03 03:50:00,
2013-01-02 21:20:00,22.3,8.0,30.42,SSW,209,0.0,1.0,55,0.00,,,0.00,0,weatherlink.com 1.10,2013-01-03 04:20:00,
2013-01-02 21:35:00,20.3,8.0,30.43,SW,229,0.0,3.0,60,0.00,,,0.00,0,weatherlink.com 1.10,2013-01-03 04:35:00,
2013-01-02 21:50:00,19.2,8.0,30.43,SW,229,0.0,1.0,62,0.00,,,0.00,0,weatherlink.com 1.10,2013-01-03 04:50:00,
2013-01-02 22:20:00,17.5,7.0,30.45,WSW,244,1.0,1.0,64,0.00,,,0.00,0,weatherlink.com 1.10,2013-01-03 05:20:00,
2013-01-02 22:35:00,17.3,7.0,30.45,WSW,244,0.0,2.0,65,0.00,,,0.00,0,weatherlink.com 1.10,2013-01-03 05:35:00,
2013-01-02 22:50:00,17.1,7.0,30.45,WSW,244,0.0,1.0,64,0.00,,,0.00,0,weatherlink.com 1.10,2013-01-03 05:50:00,
2013-01-02 23:05:00,16.7,7.0,30.46,WSW,244,0.0,1.0,66,0.00,,,0.00,0,weatherlink.com 1.10,2013-01-03 06:05:00,
2013-01-02 23:20:00,17.1,7.0,30.46,WSW,244,1.0,2.0,65,0.00,,,0.00,0,weatherlink.com 1.10,2013-01-03 06:20:00,
2013-01-02 23:35:00,17.0,6.0,30.46,WSW,244,0.0,1.0,63,0.00,,,0.00,0,weatherlink.com 1.10,2013-01-03 06:35:00,
2013-01-02 23:50:00,17.0,6.0,30.47,WSW,244,0.0,0.0,62,0.00,,,0.00,0,weatherlink.com 1.10,2013-01-03 06:50:00,